WMT5SQ LEPA-LRCL
Flight info
| Callsign | WMT5SQ |
|---|---|
| Flight time | 2h 37m |
| Altitude | 36000 |
| Route | TONIS DCT LUMAS DCT UNANA DCT STP DCT RAPED DCT PIGOS DCT EKSID DCT NOSTA DCT NOPMU DCT CHI DCT TULIK DCT VEBAL DCT RUPUG DCT ATSOS |
| Aircraft | A321/M-VGDW/C |
Departure
| Time | 2026-05-04 08:02 |
|---|---|
| Airport | Palma de Mallorca Airport (LEPA) |
Arrival
| Time | 2026-05-04 10:39 |
|---|---|
| Airport | Avram Iancu Cluj International Airport (LRCL) |
| Time | Latitude | Longitude | Altitude | Speed | Heading |
|---|---|---|---|---|---|
| 2026-05-04 07:26 | 39.54895 | 2.73822 | 39 ft | 0 kts | 249° |
| 2026-05-04 07:52 | 39.54895 | 2.73823 | 39 ft | 1 kts | 249° |
| 2026-05-04 07:52 | 39.54900 | 2.73840 | 39 ft | 3 kts | 249° |
| 2026-05-04 07:52 | 39.54907 | 2.73864 | 39 ft | 3 kts | 249° |
| 2026-05-04 07:53 | 39.54915 | 2.73888 | 39 ft | 3 kts | 249° |
| 2026-05-04 07:54 | 39.54903 | 2.73955 | 39 ft | 0 kts | 328° |
| 2026-05-04 07:55 | 39.54910 | 2.73950 | 39 ft | 2 kts | 328° |
| 2026-05-04 07:56 | 39.54934 | 2.73931 | 39 ft | 6 kts | 329° |
| 2026-05-04 07:56 | 39.54976 | 2.73898 | 38 ft | 9 kts | 329° |
| 2026-05-04 07:56 | 39.55036 | 2.73851 | 38 ft | 12 kts | 329° |
| 2026-05-04 07:56 | 39.55113 | 2.73791 | 38 ft | 14 kts | 329° |
| 2026-05-04 07:57 | 39.55211 | 2.73799 | 38 ft | 16 kts | 15° |
| 2026-05-04 07:57 | 39.55264 | 2.73782 | 38 ft | 8 kts | 324° |
| 2026-05-04 07:57 | 39.55325 | 2.73731 | 38 ft | 13 kts | 328° |
| 2026-05-04 07:57 | 39.55419 | 2.73655 | 39 ft | 19 kts | 328° |
| 2026-05-04 07:58 | 39.55543 | 2.73557 | 39 ft | 23 kts | 329° |
| 2026-05-04 07:58 | 39.55654 | 2.73522 | 39 ft | 17 kts | 37° |
| 2026-05-04 07:58 | 39.55718 | 2.73643 | 39 ft | 18 kts | 57° |
| 2026-05-04 07:58 | 39.55790 | 2.73795 | 39 ft | 20 kts | 59° |
| 2026-05-04 07:59 | 39.55856 | 2.73905 | 39 ft | 11 kts | 21° |
| 2026-05-04 07:59 | 39.55928 | 2.73872 | 39 ft | 13 kts | 330° |
| 2026-05-04 07:59 | 39.55999 | 2.73810 | 39 ft | 9 kts | 297° |
| 2026-05-04 07:59 | 39.55996 | 2.73779 | 39 ft | 0 kts | 240° |
| 2026-05-04 08:02 | 39.53090 | 2.67820 | 1877 ft | 174 kts | 238° |
| 2026-05-04 08:02 | 39.52403 | 2.66461 | 2232 ft | 187 kts | 239° |
| 2026-05-04 08:02 | 39.51664 | 2.64993 | 2579 ft | 202 kts | 239° |
| 2026-05-04 08:03 | 39.50871 | 2.63421 | 2968 ft | 217 kts | 238° |
| 2026-05-04 08:03 | 39.50026 | 2.61743 | 3521 ft | 226 kts | 237° |
| 2026-05-04 08:03 | 39.48958 | 2.60197 | 3995 ft | 240 kts | 216° |
| 2026-05-04 08:03 | 39.47466 | 2.59106 | 4476 ft | 253 kts | 206° |
| 2026-05-04 08:04 | 39.45868 | 2.58080 | 5129 ft | 258 kts | 207° |
| 2026-05-04 08:04 | 39.44276 | 2.56982 | 5839 ft | 261 kts | 209° |
| 2026-05-04 08:04 | 39.42620 | 2.55976 | 6532 ft | 266 kts | 197° |
| 2026-05-04 08:04 | 39.40790 | 2.55861 | 7166 ft | 274 kts | 170° |
| 2026-05-04 08:05 | 39.39060 | 2.56931 | 7795 ft | 283 kts | 142° |
| 2026-05-04 08:05 | 39.37858 | 2.58971 | 8418 ft | 292 kts | 115° |
| 2026-05-04 08:05 | 39.37159 | 2.61458 | 9066 ft | 296 kts | 115° |
| 2026-05-04 08:05 | 39.35995 | 2.63667 | 9623 ft | 295 kts | 139° |
| 2026-05-04 08:06 | 39.34469 | 2.65390 | 10247 ft | 297 kts | 144° |
| 2026-05-04 08:06 | 39.32856 | 2.67198 | 10674 ft | 310 kts | 142° |
| 2026-05-04 08:06 | 39.31233 | 2.69100 | 10890 ft | 329 kts | 141° |
| 2026-05-04 08:06 | 39.29506 | 2.71155 | 11120 ft | 345 kts | 141° |
| 2026-05-04 08:08 | 39.27612 | 2.93114 | 14659 ft | 398 kts | 62° |
| 2026-05-04 08:08 | 39.28988 | 2.96224 | 15188 ft | 401 kts | 58° |
| 2026-05-04 08:10 | 39.40926 | 3.21734 | 18996 ft | 427 kts | 58° |
| 2026-05-04 08:11 | 39.42457 | 3.25038 | 19420 ft | 430 kts | 58° |
| 2026-05-04 08:11 | 39.45539 | 3.31735 | 20278 ft | 436 kts | 58° |
| 2026-05-04 08:11 | 39.47092 | 3.35107 | 20691 ft | 438 kts | 58° |
| 2026-05-04 08:12 | 39.48658 | 3.38506 | 21096 ft | 441 kts | 58° |
| 2026-05-04 08:12 | 39.50231 | 3.41926 | 21490 ft | 443 kts | 59° |
| 2026-05-04 08:12 | 39.51813 | 3.45370 | 21882 ft | 446 kts | 59° |
| 2026-05-04 08:12 | 39.53401 | 3.48833 | 22245 ft | 449 kts | 59° |
| 2026-05-04 08:13 | 39.54996 | 3.52318 | 22609 ft | 451 kts | 59° |
| 2026-05-04 08:13 | 39.56599 | 3.55825 | 22989 ft | 453 kts | 59° |
| 2026-05-04 08:13 | 39.58209 | 3.59346 | 23341 ft | 455 kts | 59° |
| 2026-05-04 08:13 | 39.59825 | 3.62886 | 23675 ft | 458 kts | 59° |
| 2026-05-04 08:14 | 39.61450 | 3.66448 | 24013 ft | 460 kts | 59° |
| 2026-05-04 08:14 | 39.63060 | 3.69983 | 24345 ft | 462 kts | 59° |
| 2026-05-04 08:14 | 39.64718 | 3.73627 | 24680 ft | 464 kts | 59° |
| 2026-05-04 08:16 | 39.76317 | 3.99247 | 26784 ft | 478 kts | 59° |
| 2026-05-04 08:16 | 39.78001 | 4.02982 | 27078 ft | 479 kts | 59° |
| 2026-05-04 08:16 | 39.79688 | 4.06728 | 27348 ft | 481 kts | 59° |
| 2026-05-04 08:17 | 39.81378 | 4.10485 | 27601 ft | 483 kts | 59° |
| 2026-05-04 08:17 | 39.83087 | 4.14262 | 27855 ft | 485 kts | 58° |
| 2026-05-04 08:17 | 39.85113 | 4.17761 | 28086 ft | 485 kts | 45° |
| 2026-05-04 08:17 | 39.87655 | 4.20603 | 28315 ft | 482 kts | 31° |
| 2026-05-04 08:19 | 40.10182 | 4.27181 | 29926 ft | 481 kts | 7° |
| 2026-05-04 08:19 | 40.13475 | 4.28002 | 30126 ft | 482 kts | 6° |
| 2026-05-04 08:20 | 40.16780 | 4.28792 | 30349 ft | 482 kts | 6° |
| 2026-05-04 08:20 | 40.20084 | 4.29556 | 30642 ft | 481 kts | 5° |
| 2026-05-04 08:20 | 40.23373 | 4.30311 | 30912 ft | 480 kts | 5° |
| 2026-05-04 08:20 | 40.26661 | 4.31080 | 31178 ft | 480 kts | 5° |
| 2026-05-04 08:21 | 40.29949 | 4.31864 | 31440 ft | 479 kts | 5° |
| 2026-05-04 08:21 | 40.33224 | 4.32652 | 31704 ft | 478 kts | 5° |
| 2026-05-04 08:21 | 40.36495 | 4.33435 | 31930 ft | 478 kts | 4° |
| 2026-05-04 08:21 | 40.39765 | 4.34212 | 32182 ft | 477 kts | 4° |
| 2026-05-04 08:22 | 40.43022 | 4.34983 | 32443 ft | 476 kts | 4° |
| 2026-05-04 08:22 | 40.46281 | 4.35753 | 32659 ft | 475 kts | 4° |
| 2026-05-04 08:24 | 40.68946 | 4.41174 | 34159 ft | 471 kts | 4° |
| 2026-05-04 08:24 | 40.72174 | 4.41950 | 34315 ft | 471 kts | 4° |
| 2026-05-04 08:24 | 40.75399 | 4.42728 | 34462 ft | 471 kts | 4° |
| 2026-05-04 08:24 | 40.78622 | 4.43507 | 34656 ft | 471 kts | 4° |
| 2026-05-04 08:25 | 40.81845 | 4.44286 | 34826 ft | 470 kts | 4° |
| 2026-05-04 08:25 | 40.85064 | 4.45062 | 34974 ft | 470 kts | 4° |
| 2026-05-04 08:25 | 40.88288 | 4.45837 | 35144 ft | 470 kts | 4° |
| 2026-05-04 08:25 | 40.91499 | 4.46611 | 35275 ft | 470 kts | 4° |
| 2026-05-04 08:26 | 40.94677 | 4.47381 | 35433 ft | 470 kts | 4° |
| 2026-05-04 08:27 | 41.17164 | 4.52843 | 36013 ft | 470 kts | 5° |
| 2026-05-04 08:28 | 41.23598 | 4.54411 | 36017 ft | 470 kts | 5° |
| 2026-05-04 08:28 | 41.28938 | 4.55718 | 36018 ft | 470 kts | 6° |
| 2026-05-04 08:29 | 41.35374 | 4.57295 | 36017 ft | 470 kts | 6° |
| 2026-05-04 08:31 | 41.61049 | 4.63610 | 35969 ft | 472 kts | 6° |
| 2026-05-04 08:33 | 41.81213 | 4.76935 | 36075 ft | 482 kts | 45° |
| 2026-05-04 08:33 | 41.83527 | 4.80171 | 36057 ft | 481 kts | 44° |
| 2026-05-04 08:35 | 42.02588 | 5.05439 | 35995 ft | 484 kts | 44° |
| 2026-05-04 08:35 | 42.07347 | 5.11766 | 36054 ft | 484 kts | 44° |
| 2026-05-04 08:37 | 42.23870 | 5.33939 | 36047 ft | 473 kts | 44° |
| 2026-05-04 08:38 | 42.28525 | 5.40214 | 36005 ft | 472 kts | 44° |
| 2026-05-04 08:38 | 42.33156 | 5.46476 | 36005 ft | 471 kts | 44° |
| 2026-05-04 08:40 | 42.51866 | 5.71905 | 36104 ft | 480 kts | 45° |
| 2026-05-04 08:41 | 42.56568 | 5.78332 | 36110 ft | 479 kts | 45° |
| 2026-05-04 08:41 | 42.61245 | 5.84736 | 36097 ft | 477 kts | 45° |
| 2026-05-04 08:42 | 42.65894 | 5.91121 | 36059 ft | 475 kts | 45° |
| 2026-05-04 08:42 | 42.70539 | 5.97516 | 36024 ft | 474 kts | 45° |
| 2026-05-04 08:43 | 42.75167 | 6.03896 | 36032 ft | 474 kts | 45° |
| 2026-05-04 08:43 | 42.79794 | 6.10292 | 36032 ft | 476 kts | 45° |
| 2026-05-04 08:44 | 42.84420 | 6.16700 | 36067 ft | 478 kts | 45° |
| 2026-05-04 08:46 | 43.04657 | 6.40164 | 36109 ft | 474 kts | 39° |
| 2026-05-04 08:46 | 43.09695 | 6.45978 | 36067 ft | 473 kts | 39° |
| 2026-05-04 08:47 | 43.14721 | 6.51778 | 36056 ft | 472 kts | 39° |
| 2026-05-04 08:47 | 43.19731 | 6.57590 | 36061 ft | 473 kts | 39° |
| 2026-05-04 08:48 | 43.24202 | 6.64209 | 36080 ft | 476 kts | 53° |
| 2026-05-04 08:48 | 43.28075 | 6.71657 | 36125 ft | 482 kts | 56° |
| 2026-05-04 08:49 | 43.31948 | 6.79176 | 36149 ft | 482 kts | 54° |
| 2026-05-04 08:50 | 43.43587 | 7.01255 | 36117 ft | 471 kts | 54° |
| 2026-05-04 08:50 | 43.45493 | 7.04906 | 36094 ft | 469 kts | 54° |
| 2026-05-04 08:51 | 43.49312 | 7.12203 | 36106 ft | 472 kts | 54° |
| 2026-05-04 08:51 | 43.53165 | 7.19603 | 36119 ft | 477 kts | 54° |
| 2026-05-04 08:52 | 43.57018 | 7.27029 | 36119 ft | 477 kts | 54° |
| 2026-05-04 08:52 | 43.60875 | 7.34475 | 36122 ft | 477 kts | 55° |
| 2026-05-04 08:54 | 43.76239 | 7.64332 | 36177 ft | 477 kts | 55° |
| 2026-05-04 08:55 | 43.80065 | 7.71819 | 36189 ft | 476 kts | 55° |
| 2026-05-04 08:55 | 43.84574 | 7.78492 | 36170 ft | 476 kts | 38° |
| 2026-05-04 08:57 | 43.98768 | 8.02505 | 36158 ft | 473 kts | 72° |
| 2026-05-04 09:01 | 44.15196 | 8.62500 | 36159 ft | 471 kts | 70° |
| 2026-05-04 09:01 | 44.17504 | 8.71029 | 36123 ft | 470 kts | 70° |
| 2026-05-04 09:02 | 44.19811 | 8.79557 | 36128 ft | 470 kts | 70° |
| 2026-05-04 09:02 | 44.22114 | 8.88111 | 36125 ft | 472 kts | 70° |
| 2026-05-04 09:03 | 44.24415 | 8.96701 | 36130 ft | 475 kts | 70° |
| 2026-05-04 09:03 | 44.26726 | 9.05349 | 36184 ft | 476 kts | 70° |
| 2026-05-04 09:04 | 44.29033 | 9.14010 | 36212 ft | 475 kts | 70° |
| 2026-05-04 09:04 | 44.31303 | 9.22571 | 36216 ft | 472 kts | 70° |
| 2026-05-04 09:05 | 44.33568 | 9.31138 | 36204 ft | 469 kts | 70° |
| 2026-05-04 09:05 | 44.35819 | 9.39679 | 36161 ft | 467 kts | 70° |
| 2026-05-04 09:06 | 44.38045 | 9.48168 | 36120 ft | 465 kts | 70° |
| 2026-05-04 09:08 | 44.46935 | 9.82346 | 36166 ft | 473 kts | 70° |
| 2026-05-04 09:08 | 44.49173 | 9.91031 | 36198 ft | 474 kts | 70° |
| 2026-05-04 09:09 | 44.51399 | 9.99702 | 36200 ft | 472 kts | 70° |
| 2026-05-04 09:09 | 44.53608 | 10.08331 | 36209 ft | 469 kts | 70° |
| 2026-05-04 09:10 | 44.55797 | 10.16925 | 36181 ft | 467 kts | 70° |
| 2026-05-04 09:10 | 44.57972 | 10.25490 | 36133 ft | 465 kts | 70° |
| 2026-05-04 09:11 | 44.60130 | 10.34024 | 36123 ft | 464 kts | 70° |
| 2026-05-04 09:11 | 44.62283 | 10.42564 | 36121 ft | 464 kts | 70° |
| 2026-05-04 09:12 | 44.64421 | 10.51076 | 36120 ft | 467 kts | 70° |
| 2026-05-04 09:14 | 44.73065 | 10.85828 | 36203 ft | 469 kts | 70° |
| 2026-05-04 09:14 | 44.75195 | 10.94469 | 36203 ft | 466 kts | 70° |
| 2026-05-04 09:15 | 44.77304 | 11.03056 | 36159 ft | 463 kts | 70° |
| 2026-05-04 09:15 | 44.79396 | 11.11614 | 36117 ft | 461 kts | 70° |
| 2026-05-04 09:17 | 44.88765 | 11.50326 | 36127 ft | 470 kts | 70° |
| 2026-05-04 09:18 | 44.90860 | 11.59071 | 36181 ft | 471 kts | 70° |
| 2026-05-04 09:18 | 44.92945 | 11.67812 | 36172 ft | 469 kts | 70° |
| 2026-05-04 09:19 | 44.95013 | 11.76502 | 36179 ft | 464 kts | 71° |
| 2026-05-04 09:19 | 44.97047 | 11.85114 | 36172 ft | 460 kts | 71° |
| 2026-05-04 09:20 | 44.98717 | 11.92200 | 36156 ft | 456 kts | 71° |
| 2026-05-04 09:20 | 45.00705 | 12.00660 | 36111 ft | 453 kts | 71° |
| 2026-05-04 09:21 | 45.02699 | 12.09167 | 36141 ft | 460 kts | 71° |
| 2026-05-04 09:21 | 45.04706 | 12.17769 | 36132 ft | 460 kts | 71° |
| 2026-05-04 09:22 | 45.06712 | 12.26358 | 36130 ft | 460 kts | 70° |
| 2026-05-04 09:22 | 45.09651 | 12.34382 | 36135 ft | 460 kts | 58° |
| 2026-05-04 09:23 | 45.12999 | 12.42086 | 36107 ft | 459 kts | 57° |
| 2026-05-04 09:23 | 45.16294 | 12.49833 | 36083 ft | 459 kts | 59° |
| 2026-05-04 09:25 | 45.27626 | 12.77116 | 35545 ft | 459 kts | 61° |
| 2026-05-04 09:25 | 45.28856 | 12.81287 | 35274 ft | 459 kts | 72° |
| 2026-05-04 09:26 | 45.29709 | 12.85659 | 35114 ft | 459 kts | 76° |
| 2026-05-04 09:26 | 45.30455 | 12.90075 | 35129 ft | 459 kts | 77° |
| 2026-05-04 09:26 | 45.31906 | 12.98902 | 35132 ft | 459 kts | 76° |
| 2026-05-04 09:27 | 45.33484 | 13.07696 | 35139 ft | 459 kts | 75° |
| 2026-05-04 09:27 | 45.35060 | 13.16495 | 35143 ft | 459 kts | 76° |
| 2026-05-04 09:28 | 45.36580 | 13.25307 | 35142 ft | 459 kts | 76° |
| 2026-05-04 09:28 | 45.38107 | 13.34121 | 35134 ft | 459 kts | 75° |
| 2026-05-04 09:29 | 45.39639 | 13.42937 | 35122 ft | 459 kts | 75° |
| 2026-05-04 09:29 | 45.41155 | 13.51756 | 35110 ft | 459 kts | 76° |
| 2026-05-04 09:30 | 45.42663 | 13.60578 | 35100 ft | 459 kts | 76° |
| 2026-05-04 09:30 | 45.44167 | 13.69399 | 35098 ft | 459 kts | 76° |
| 2026-05-04 09:31 | 45.45664 | 13.78230 | 35099 ft | 458 kts | 76° |
| 2026-05-04 09:31 | 45.47152 | 13.87057 | 35097 ft | 458 kts | 76° |
| 2026-05-04 09:32 | 45.48632 | 13.95884 | 35100 ft | 458 kts | 76° |
| 2026-05-04 09:34 | 45.54496 | 14.31289 | 35112 ft | 459 kts | 76° |
| 2026-05-04 09:34 | 45.55945 | 14.40149 | 35117 ft | 458 kts | 76° |
| 2026-05-04 09:35 | 45.57385 | 14.49002 | 35115 ft | 458 kts | 76° |
| 2026-05-04 09:35 | 45.58810 | 14.57809 | 35100 ft | 459 kts | 76° |
| 2026-05-04 09:37 | 45.64479 | 14.93327 | 35134 ft | 458 kts | 76° |
| 2026-05-04 09:38 | 45.65876 | 15.02200 | 35117 ft | 458 kts | 76° |
| 2026-05-04 09:38 | 45.67269 | 15.11091 | 35138 ft | 458 kts | 76° |
| 2026-05-04 09:39 | 45.68652 | 15.19969 | 35139 ft | 457 kts | 76° |
| 2026-05-04 09:39 | 45.70027 | 15.28836 | 35145 ft | 457 kts | 76° |
| 2026-05-04 09:40 | 45.71395 | 15.37717 | 35143 ft | 456 kts | 76° |
| 2026-05-04 09:40 | 45.72753 | 15.46582 | 35157 ft | 456 kts | 76° |
| 2026-05-04 09:42 | 45.78093 | 15.81912 | 35172 ft | 453 kts | 76° |
| 2026-05-04 09:43 | 45.79407 | 15.90729 | 35131 ft | 453 kts | 76° |
| 2026-05-04 09:43 | 45.80716 | 15.99567 | 35095 ft | 453 kts | 76° |
| 2026-05-04 09:44 | 45.82016 | 16.08395 | 35099 ft | 453 kts | 76° |
| 2026-05-04 09:46 | 45.87156 | 16.43777 | 35125 ft | 453 kts | 76° |
| 2026-05-04 09:46 | 45.88426 | 16.52644 | 35124 ft | 453 kts | 76° |
| 2026-05-04 09:47 | 45.89688 | 16.61514 | 35119 ft | 453 kts | 76° |
| 2026-05-04 09:49 | 45.94662 | 16.96982 | 35151 ft | 452 kts | 76° |
| 2026-05-04 09:51 | 45.98913 | 17.27978 | 35181 ft | 450 kts | 76° |
| 2026-05-04 09:51 | 46.00557 | 17.36625 | 35178 ft | 448 kts | 70° |
| 2026-05-04 09:52 | 46.02375 | 17.45121 | 35176 ft | 447 kts | 70° |
| 2026-05-04 09:52 | 46.04174 | 17.53686 | 35165 ft | 447 kts | 71° |
| 2026-05-04 09:53 | 46.05932 | 17.62266 | 35146 ft | 447 kts | 71° |
| 2026-05-04 09:53 | 46.07701 | 17.70830 | 35122 ft | 447 kts | 70° |
| 2026-05-04 09:54 | 46.09468 | 17.79404 | 35128 ft | 446 kts | 71° |
| 2026-05-04 09:54 | 46.11219 | 17.87969 | 35132 ft | 446 kts | 71° |
| 2026-05-04 09:55 | 46.12964 | 17.96540 | 35124 ft | 445 kts | 71° |
| 2026-05-04 09:55 | 46.14704 | 18.05113 | 35123 ft | 445 kts | 71° |
| 2026-05-04 09:56 | 46.16438 | 18.13694 | 35125 ft | 446 kts | 71° |
| 2026-05-04 09:56 | 46.18164 | 18.22280 | 35138 ft | 446 kts | 71° |
| 2026-05-04 09:57 | 46.19884 | 18.30865 | 35159 ft | 445 kts | 71° |
| 2026-05-04 09:57 | 46.21595 | 18.39452 | 35170 ft | 445 kts | 71° |
| 2026-05-04 09:58 | 46.23297 | 18.48034 | 35178 ft | 445 kts | 71° |
| 2026-05-04 09:58 | 46.24993 | 18.56613 | 35192 ft | 444 kts | 71° |
| 2026-05-04 10:00 | 46.31697 | 18.90918 | 35212 ft | 442 kts | 71° |
| 2026-05-04 10:04 | 46.43087 | 19.50632 | 35173 ft | 438 kts | 71° |
| 2026-05-04 10:04 | 46.44682 | 19.59151 | 35151 ft | 438 kts | 71° |
| 2026-05-04 10:05 | 46.46268 | 19.67660 | 35157 ft | 437 kts | 71° |
| 2026-05-04 10:05 | 46.47850 | 19.76182 | 35136 ft | 437 kts | 71° |
| 2026-05-04 10:06 | 46.49421 | 19.84689 | 35133 ft | 437 kts | 71° |
| 2026-05-04 10:06 | 46.50989 | 19.93211 | 35130 ft | 437 kts | 72° |
| 2026-05-04 10:08 | 46.56417 | 20.23040 | 35218 ft | 435 kts | 72° |
| 2026-05-04 10:08 | 46.57949 | 20.31535 | 35223 ft | 434 kts | 72° |
| 2026-05-04 10:09 | 46.59469 | 20.40020 | 35208 ft | 434 kts | 72° |
| 2026-05-04 10:09 | 46.60974 | 20.48454 | 35163 ft | 434 kts | 72° |
| 2026-05-04 10:10 | 46.62480 | 20.56933 | 35140 ft | 433 kts | 72° |
| 2026-05-04 10:10 | 46.63978 | 20.65416 | 35140 ft | 432 kts | 72° |
| 2026-05-04 10:11 | 46.65470 | 20.73895 | 35140 ft | 432 kts | 72° |
| 2026-05-04 10:11 | 46.66715 | 20.81002 | 35145 ft | 433 kts | 72° |
| 2026-05-04 10:12 | 46.68196 | 20.89494 | 35184 ft | 432 kts | 72° |
| 2026-05-04 10:12 | 46.69667 | 20.97969 | 35207 ft | 432 kts | 73° |
| 2026-05-04 10:13 | 46.71131 | 21.06448 | 35222 ft | 431 kts | 73° |
| 2026-05-04 10:13 | 46.72576 | 21.14864 | 35229 ft | 431 kts | 73° |
| 2026-05-04 10:14 | 46.74024 | 21.23331 | 35223 ft | 431 kts | 73° |
| 2026-05-04 10:16 | 46.79025 | 21.52903 | 34662 ft | 426 kts | 73° |
| 2026-05-04 10:16 | 46.79731 | 21.57105 | 34168 ft | 425 kts | 73° |
| 2026-05-04 10:16 | 46.80433 | 21.61297 | 33614 ft | 425 kts | 73° |
| 2026-05-04 10:16 | 46.81132 | 21.65481 | 33097 ft | 424 kts | 73° |
| 2026-05-04 10:17 | 46.81824 | 21.69647 | 32570 ft | 422 kts | 73° |
| 2026-05-04 10:17 | 46.82514 | 21.73806 | 32035 ft | 421 kts | 73° |
| 2026-05-04 10:19 | 46.87207 | 22.02364 | 28378 ft | 406 kts | 74° |
| 2026-05-04 10:19 | 46.87858 | 22.06368 | 27863 ft | 404 kts | 74° |
| 2026-05-04 10:19 | 46.88503 | 22.10345 | 27333 ft | 401 kts | 74° |
| 2026-05-04 10:19 | 46.89143 | 22.14294 | 26790 ft | 399 kts | 74° |
| 2026-05-04 10:20 | 46.89780 | 22.18236 | 26274 ft | 396 kts | 74° |
| 2026-05-04 10:20 | 46.90407 | 22.22126 | 25772 ft | 392 kts | 74° |
| 2026-05-04 10:20 | 46.91021 | 22.26000 | 25271 ft | 389 kts | 75° |
| 2026-05-04 10:20 | 46.91594 | 22.29858 | 24757 ft | 386 kts | 75° |
| 2026-05-04 10:21 | 46.92152 | 22.33683 | 24244 ft | 383 kts | 76° |
| 2026-05-04 10:21 | 46.92702 | 22.37483 | 23734 ft | 380 kts | 76° |
| 2026-05-04 10:21 | 46.93248 | 22.41246 | 23239 ft | 377 kts | 76° |
| 2026-05-04 10:21 | 46.93791 | 22.44986 | 22766 ft | 373 kts | 76° |
| 2026-05-04 10:22 | 46.94861 | 22.52367 | 21743 ft | 368 kts | 76° |
| 2026-05-04 10:22 | 46.95388 | 22.56013 | 21256 ft | 365 kts | 76° |
| 2026-05-04 10:22 | 46.95909 | 22.59628 | 20780 ft | 361 kts | 76° |
| 2026-05-04 10:23 | 46.96424 | 22.63214 | 20300 ft | 358 kts | 76° |
| 2026-05-04 10:23 | 46.96932 | 22.66768 | 19789 ft | 356 kts | 76° |
| 2026-05-04 10:25 | 46.98577 | 22.91101 | 16443 ft | 345 kts | 104° |
| 2026-05-04 10:25 | 46.97833 | 22.94430 | 15966 ft | 343 kts | 105° |
| 2026-05-04 10:25 | 46.97074 | 22.97731 | 15510 ft | 340 kts | 105° |
| 2026-05-04 10:25 | 46.96351 | 23.01013 | 15053 ft | 338 kts | 104° |
| 2026-05-04 10:26 | 46.95670 | 23.04291 | 14563 ft | 336 kts | 104° |
| 2026-05-04 10:26 | 46.95009 | 23.07558 | 14051 ft | 333 kts | 104° |
| 2026-05-04 10:26 | 46.94352 | 23.10797 | 13548 ft | 330 kts | 104° |
| 2026-05-04 10:26 | 46.93695 | 23.13993 | 13067 ft | 326 kts | 104° |
| 2026-05-04 10:27 | 46.93041 | 23.17145 | 12601 ft | 323 kts | 104° |
| 2026-05-04 10:27 | 46.92392 | 23.20262 | 12134 ft | 319 kts | 104° |
| 2026-05-04 10:27 | 46.91743 | 23.23343 | 11680 ft | 315 kts | 104° |
| 2026-05-04 10:27 | 46.91105 | 23.26386 | 11243 ft | 310 kts | 104° |
| 2026-05-04 10:28 | 46.90480 | 23.29386 | 10814 ft | 307 kts | 104° |
| 2026-05-04 10:28 | 46.89863 | 23.32347 | 10391 ft | 304 kts | 105° |
| 2026-05-04 10:28 | 46.89251 | 23.35271 | 10143 ft | 295 kts | 105° |
| 2026-05-04 10:28 | 46.88655 | 23.38086 | 9978 ft | 285 kts | 105° |
| 2026-05-04 10:29 | 46.88081 | 23.40799 | 9633 ft | 283 kts | 105° |
| 2026-05-04 10:29 | 46.87486 | 23.43563 | 9233 ft | 281 kts | 106° |
| 2026-05-04 10:29 | 46.86901 | 23.46250 | 8810 ft | 281 kts | 105° |
| 2026-05-04 10:29 | 46.86318 | 23.48972 | 8393 ft | 280 kts | 105° |
| 2026-05-04 10:30 | 46.85836 | 23.51751 | 7971 ft | 278 kts | 95° |
| 2026-05-04 10:30 | 46.85996 | 23.54532 | 7546 ft | 275 kts | 73° |
| 2026-05-04 10:30 | 46.86600 | 23.57167 | 7162 ft | 272 kts | 68° |
| 2026-05-04 10:30 | 46.87277 | 23.59743 | 6767 ft | 271 kts | 68° |
| 2026-05-04 10:31 | 46.87920 | 23.62335 | 6372 ft | 270 kts | 70° |
| 2026-05-04 10:31 | 46.88497 | 23.64909 | 5984 ft | 269 kts | 71° |
| 2026-05-04 10:32 | 46.91764 | 23.79658 | 4063 ft | 234 kts | 70° |
| 2026-05-04 10:33 | 46.92256 | 23.81877 | 3923 ft | 223 kts | 71° |
| 2026-05-04 10:33 | 46.92719 | 23.83954 | 3901 ft | 204 kts | 71° |
| 2026-05-04 10:33 | 46.93043 | 23.85940 | 3584 ft | 202 kts | 82° |
| 2026-05-04 10:33 | 46.92758 | 23.87967 | 3076 ft | 211 kts | 120° |
| 2026-05-04 10:34 | 46.91670 | 23.89254 | 2983 ft | 199 kts | 159° |
| 2026-05-04 10:34 | 46.90365 | 23.89783 | 3013 ft | 192 kts | 166° |
| 2026-05-04 10:34 | 46.89075 | 23.90302 | 3014 ft | 193 kts | 163° |
| 2026-05-04 10:34 | 46.87804 | 23.90904 | 3006 ft | 192 kts | 162° |
| 2026-05-04 10:35 | 46.86531 | 23.91524 | 3002 ft | 192 kts | 162° |
| 2026-05-04 10:35 | 46.85238 | 23.91824 | 2972 ft | 187 kts | 186° |
| 2026-05-04 10:35 | 46.84116 | 23.91055 | 2995 ft | 177 kts | 226° |
| 2026-05-04 10:35 | 46.83476 | 23.89518 | 3076 ft | 178 kts | 250° |
| 2026-05-04 10:36 | 46.83066 | 23.87823 | 3054 ft | 177 kts | 252° |
| 2026-05-04 10:36 | 46.82676 | 23.86125 | 3037 ft | 177 kts | 253° |
| 2026-05-04 10:36 | 46.82305 | 23.84416 | 3023 ft | 175 kts | 253° |
| 2026-05-04 10:36 | 46.81944 | 23.82795 | 2884 ft | 161 kts | 253° |
| 2026-05-04 10:37 | 46.81612 | 23.81307 | 2688 ft | 148 kts | 253° |
| 2026-05-04 10:37 | 46.81299 | 23.79903 | 2511 ft | 146 kts | 256° |
| 2026-05-04 10:37 | 46.80987 | 23.78491 | 2304 ft | 145 kts | 256° |
| 2026-05-04 10:37 | 46.80674 | 23.77088 | 2114 ft | 145 kts | 256° |
| 2026-05-04 10:39 | 46.78824 | 23.68798 | 1051 ft | 130 kts | 255° |
| 2026-05-04 10:39 | 46.78632 | 23.67925 | 1051 ft | 48 kts | 252° |
| 2026-05-04 10:39 | 46.78566 | 23.67627 | 1051 ft | 29 kts | 253° |
| 2026-05-04 10:40 | 46.78512 | 23.67382 | 1051 ft | 19 kts | 252° |
| 2026-05-04 10:40 | 46.78481 | 23.67242 | 1051 ft | 15 kts | 246° |
| 2026-05-04 10:40 | 46.78404 | 23.67198 | 1051 ft | 13 kts | 150° |
| 2026-05-04 10:40 | 46.78341 | 23.67307 | 1051 ft | 10 kts | 111° |
| 2026-05-04 10:41 | 46.78345 | 23.67421 | 1051 ft | 13 kts | 79° |
| 2026-05-04 10:41 | 46.78364 | 23.67568 | 1051 ft | 16 kts | 78° |
| 2026-05-04 10:41 | 46.78389 | 23.67735 | 1051 ft | 13 kts | 78° |
| 2026-05-04 10:41 | 46.78411 | 23.67883 | 1051 ft | 17 kts | 78° |
| 2026-05-04 10:42 | 46.78435 | 23.68068 | 1051 ft | 20 kts | 79° |
| 2026-05-04 10:42 | 46.78463 | 23.68270 | 1051 ft | 19 kts | 78° |
| 2026-05-04 10:42 | 46.78482 | 23.68408 | 1051 ft | 15 kts | 79° |
| 2026-05-04 10:42 | 46.78503 | 23.68564 | 1051 ft | 15 kts | 79° |
| 2026-05-04 10:43 | 46.78481 | 23.68638 | 1051 ft | 9 kts | 157° |
| 2026-05-04 10:44 | 46.78360 | 23.68815 | 1051 ft | 0 kts | 168° |
| 2026-05-04 10:45 | 46.78358 | 23.68815 | 1051 ft | 0 kts | 168° |